Terminal Aerodrome Forecast
Issued by NWS Sioux Falls, SD

Home | Current Version | Previous Version | Graphics & Text | Print | Product List | Glossary On
Versions: 1 2 3 4 5 6 7 8 9 10 11 12 13 14 15 16 17 18 19 20 21 22
000
FTUS43 KFSD 221733
TAFHON
TAF
KHON 221733Z 2218/2318 32006KT P6SM OVC008
     FM222000 33007KT 5SM -SN BR OVC008
     FM230200 35010KT 3SM -SN BR OVC008
     FM230800 34014KT 3SM -SN OVC007=

USA.gov is the U.S. government's official web portal to all federal, state and local government web resources and services.